Archival Weather

Vermilion Rgnl

Danville, Illinois (KDNV)

Report from: Saturday, April 13, 2024 5:55 AM CDT
Current time: Sunday, July 14, 2024 6:41 AM CDT

Current weather – Weather history – Daily summaries
Weather forecast

Temperature5.7°C (42.3°F)
Wind chill2.7°C (36.8°F)
Dew point1.3°C (34.3°F)
Winds 8 kts (4.1 m/s, 9.2 mph) West (270°)
Visibility10 mi. (16.1 km)
Clouds Sky clear
Altimeter30.12 in.Hg (1020 mB)
Relative humidity73 %
Density altitude-1,250 ft. (-381 m)
Remarks Fully automated report
Automated weather observing station with precipitation discriminator
Flight conditions Visual Meteorological Conditions
Raw dataKDNV 131055Z AUTO 27008KT 10SM CLR 06/01 A3012 RMK AO2 T00570013
An error has occurred. This application may no longer respond until reloaded. Reload 🗙